Time;durP1;ratioP1;P1;durP2;ratioP2;P2;SDS_P1;SDS_P2;PMS_P1;PMS_P2;Temp;Humidity;BMP_temperature;BMP_pressure;BME280_temperature;BME280_humidity;BME280_pressure;Samples;Min_cycle;Max_cycle;Signal;HPM_P1;HPM_P2
2023/10/31 00:01:11;;;;;;;1.73;1.20;;;12.70;1.00;;;;;;5091758;28;20465;-75
2023/10/31 00:03:36;;;;;;;2.60;1.30;;;12.60;1.00;;;;;;5087232;28;20176;-73
2023/10/31 00:06:02;;;;;;;1.37;1.23;;;12.60;1.00;;;;;;5088562;28;20182;-74
2023/10/31 00:08:27;;;;;;;2.00;1.40;;;12.40;1.00;;;;;;5094071;28;20183;-73
2023/10/31 00:10:53;;;;;;;1.20;1.10;;;12.40;1.00;;;;;;5087930;28;20186;-75
2023/10/31 00:13:18;;;;;;;2.70;1.90;;;12.30;1.00;;;;;;5089092;28;20193;-74
2023/10/31 00:15:44;;;;;;;2.37;1.27;;;14.10;1.00;;;;;;5090293;28;20207;-74
2023/10/31 00:18:09;;;;;;;3.53;1.23;;;12.30;1.00;;;;;;5089024;28;20685;-75
2023/10/31 00:20:35;;;;;;;1.17;1.03;;;12.20;1.00;;;;;;5091938;28;20663;-75
2023/10/31 00:23:00;;;;;;;1.10;0.80;;;12.20;1.00;;;;;;5087657;28;20228;-75
2023/10/31 00:25:26;;;;;;;2.80;1.00;;;12.10;1.00;;;;;;5099381;28;20178;-75
2023/10/31 00:27:51;;;;;;;2.23;1.10;;;11.90;1.00;;;;;;5088083;28;20244;-75
2023/10/31 00:30:17;;;;;;;1.90;1.13;;;11.90;1.00;;;;;;5087148;28;20550;-74
2023/10/31 00:32:43;;;;;;;1.27;0.87;;;11.90;1.00;;;;;;5095342;28;20263;-75
2023/10/31 00:35:08;;;;;;;1.73;1.00;;;11.80;1.00;;;;;;5097384;28;20236;-75
2023/10/31 00:37:34;;;;;;;1.20;0.80;;;11.80;1.00;;;;;;5094679;28;20199;-74
2023/10/31 00:39:59;;;;;;;2.50;1.00;;;11.70;1.00;;;;;;5106131;28;20171;-74
2023/10/31 00:42:25;;;;;;;1.60;1.00;;;11.70;1.00;;;;;;5105034;28;20333;-75
2023/10/31 00:44:50;;;;;;;1.20;0.90;;;11.70;1.00;;;;;;5112320;28;20223;-75
2023/10/31 00:47:17;;;;;;;1.73;1.40;;;11.70;1.00;;;;;;5102412;28;20196;-75
2023/10/31 00:49:43;;;;;;;3.27;1.20;;;11.60;1.00;;;;;;5103434;28;20589;-74
2023/10/31 00:52:08;;;;;;;1.43;1.00;;;11.60;1.00;;;;;;5108366;28;20495;-75
2023/10/31 00:54:34;;;;;;;2.13;1.00;;;11.60;1.00;;;;;;5101856;28;20279;-74
2023/10/31 00:56:59;;;;;;;2.20;1.23;;;11.60;1.00;;;;;;5107419;28;20667;-75
2023/10/31 00:59:25;;;;;;;1.70;1.00;;;11.60;1.00;;;;;;5110370;28;20250;-76
2023/10/31 01:01:50;;;;;;;1.50;1.00;;;11.50;1.00;;;;;;5110754;28;20220;-75
2023/10/31 01:04:16;;;;;;;1.20;1.10;;;11.80;1.00;;;;;;5110830;28;20186;-75
2023/10/31 01:06:42;;;;;;;2.30;1.20;;;11.50;1.00;;;;;;5107786;28;20198;-75
2023/10/31 01:09:11;;;;;;;1.70;1.00;;;11.40;1.00;;;;;;5108537;28;20181;-76
2023/10/31 01:11:37;;;;;;;2.07;1.00;;;11.40;1.00;;;;;;5107226;28;20506;-74
2023/10/31 01:14:03;;;;;;;1.80;1.10;;;11.40;1.00;;;;;;5108387;28;20524;-74
2023/10/31 01:16:28;;;;;;;1.37;1.00;;;11.40;1.00;;;;;;5112741;28;20665;-73
2023/10/31 01:18:54;;;;;;;1.60;1.10;;;11.40;1.00;;;;;;5108525;28;20419;-76
2023/10/31 01:21:19;;;;;;;4.53;1.30;;;11.40;1.00;;;;;;5102973;28;20234;-74
2023/10/31 01:23:45;;;;;;;2.73;0.93;;;11.40;1.00;;;;;;5104819;28;20179;-75
2023/10/31 01:26:10;;;;;;;1.73;1.00;;;11.40;1.00;;;;;;5110376;28;20661;-76
2023/10/31 01:28:36;;;;;;;1.40;1.10;;;11.40;1.00;;;;;;5109929;28;20212;-76
2023/10/31 01:31:01;;;;;;;1.90;1.00;;;11.30;1.00;;;;;;5107648;28;20191;-75
2023/10/31 01:33:27;;;;;;;1.47;1.10;;;11.30;1.00;;;;;;5099589;28;20172;-75
2023/10/31 01:35:52;;;;;;;1.20;0.93;;;11.30;1.00;;;;;;5103602;28;20345;-77
2023/10/31 01:38:18;;;;;;;1.00;0.80;;;11.30;1.00;;;;;;5099042;28;20195;-74
2023/10/31 01:40:44;;;;;;;1.63;0.90;;;11.20;1.00;;;;;;5096526;28;20518;-74
2023/10/31 01:43:09;;;;;;;1.37;1.00;;;11.20;1.00;;;;;;5101620;28;20190;-77
2023/10/31 01:45:35;;;;;;;1.67;1.13;;;11.30;1.00;;;;;;5100418;28;20171;-74
2023/10/31 01:48:01;;;;;;;5.33;1.40;;;11.30;1.00;;;;;;5096171;28;20202;-75
2023/10/31 01:50:26;;;;;;;1.73;1.10;;;11.20;1.00;;;;;;5100873;28;20171;-72
2023/10/31 01:52:52;;;;;;;5.20;1.33;;;11.20;1.00;;;;;;5104186;28;20176;-77
2023/10/31 01:55:18;;;;;;;5.70;1.50;;;11.30;1.00;;;;;;5107253;28;20198;-75
2023/10/31 01:57:46;;;;;;;4.43;1.70;;;11.40;1.00;;;;;;5105038;28;20572;-75
2023/10/31 02:00:14;;;;;;;1.87;1.43;;;11.40;1.00;;;;;;5109346;28;20428;-75
2023/10/31 02:02:43;;;;;;;1.60;1.40;;;11.40;1.00;;;;;;5104902;28;20405;-74
2023/10/31 02:05:09;;;;;;;3.53;1.40;;;11.40;1.00;;;;;;5109294;28;20419;-74
2023/10/31 02:07:35;;;;;;;2.10;1.30;;;11.40;1.00;;;;;;5102473;28;20831;-73
2023/10/31 02:10:00;;;;;;;1.40;1.30;;;11.40;1.00;;;;;;5093016;28;20417;-76
2023/10/31 02:12:36;;;;;;;1.33;1.17;;;11.40;1.00;;;;;;5107932;28;20235;-75
2023/10/31 02:15:03;;;;;;;5.23;1.50;;;11.40;1.00;;;;;;5110046;28;20187;-75
2023/10/31 02:17:28;;;;;;;2.30;1.13;;;11.40;1.00;;;;;;5104867;28;20556;-74
2023/10/31 02:19:54;;;;;;;3.53;1.27;;;11.40;1.00;;;;;;5093923;28;20823;-75
2023/10/31 02:22:20;;;;;;;2.57;1.50;;;11.40;1.00;;;;;;5091323;28;20221;-77
2023/10/31 02:24:45;;;;;;;3.40;1.50;;;11.40;1.00;;;;;;5109150;28;20167;-77
2023/10/31 02:27:11;;;;;;;2.37;1.57;;;11.40;1.00;;;;;;5101501;28;20263;-76
2023/10/31 02:29:38;;;;;;;2.27;1.60;;;11.40;1.00;;;;;;5095256;28;20195;-79
2023/10/31 02:32:04;;;;;;;2.80;1.47;;;11.40;1.00;;;;;;5095143;28;20190;-75
2023/10/31 02:34:30;;;;;;;1.97;1.60;;;11.40;1.00;;;;;;5099628;28;20413;-76
2023/10/31 02:36:55;;;;;;;2.50;1.63;;;11.30;1.00;;;;;;5101622;28;20302;-78
2023/10/31 02:39:21;;;;;;;2.63;1.20;;;11.30;1.00;;;;;;5093539;28;20519;-77
2023/10/31 02:41:46;;;;;;;1.83;1.20;;;13.00;1.00;;;;;;5094854;28;20244;-76
2023/10/31 02:44:14;;;;;;;2.97;1.10;;;11.20;1.00;;;;;;5089071;28;20187;-77
2023/10/31 02:46:40;;;;;;;1.20;1.10;;;11.20;1.00;;;;;;5095761;28;20191;-78
2023/10/31 02:49:05;;;;;;;1.60;1.10;;;11.10;1.00;;;;;;5097891;28;21053;-76
2023/10/31 02:51:31;;;;;;;1.10;0.87;;;11.20;1.00;;;;;;5092668;28;20179;-76
2023/10/31 02:53:56;;;;;;;1.50;1.20;;;11.10;1.00;;;;;;5093973;28;20191;-75
2023/10/31 02:56:22;;;;;;;10.60;1.30;;;11.20;1.00;;;;;;5095672;28;20558;-76
2023/10/31 02:58:48;;;;;;;1.60;1.17;;;11.20;1.00;;;;;;5093215;28;20498;-74
2023/10/31 03:01:14;;;;;;;2.00;1.47;;;11.20;1.00;;;;;;5092428;28;20409;-76
2023/10/31 03:03:39;;;;;;;2.90;1.43;;;11.20;1.00;;;;;;5092753;28;20248;-75
2023/10/31 03:06:05;;;;;;;4.10;1.17;;;11.20;1.00;;;;;;5101330;28;20195;-78
2023/10/31 03:08:31;;;;;;;1.70;1.10;;;11.10;1.00;;;;;;5090158;28;20193;-78
2023/10/31 03:10:56;;;;;;;1.37;0.87;;;11.10;1.00;;;;;;5098058;28;20420;-76
2023/10/31 03:13:22;;;;;;;1.20;1.10;;;11.00;1.00;;;;;;5092613;28;20700;-76
2023/10/31 03:15:48;;;;;;;5.43;2.20;;;11.00;1.00;;;;;;5095931;28;20203;-77
2023/10/31 03:18:16;;;;;;;5.37;1.10;;;11.00;1.00;;;;;;5098111;28;20497;-78
2023/10/31 03:20:46;;;;;;;1.43;1.10;;;10.90;1.00;;;;;;5089972;28;20171;-78
2023/10/31 03:23:12;;;;;;;4.10;1.20;;;10.90;1.00;;;;;;5096700;28;20962;-78
2023/10/31 03:25:37;;;;;;;1.40;1.20;;;10.90;1.00;;;;;;5097817;28;20435;-76
2023/10/31 03:28:03;;;;;;;1.37;1.00;;;10.80;1.00;;;;;;5087476;28;20429;-76
2023/10/31 03:30:29;;;;;;;1.57;1.20;;;10.80;1.00;;;;;;5103395;28;20186;-75
2023/10/31 03:32:54;;;;;;;3.10;1.00;;;10.70;1.00;;;;;;5090221;28;20617;-77
2023/10/31 03:35:19;;;;;;;1.20;0.80;;;10.70;1.00;;;;;;5096518;28;20267;-76
2023/10/31 03:37:45;;;;;;;1.27;0.93;;;10.70;1.00;;;;;;5098049;28;20211;-76
2023/10/31 03:40:11;;;;;;;3.33;1.33;;;10.70;1.00;;;;;;5097480;28;20168;-78
2023/10/31 03:42:36;;;;;;;2.50;1.10;;;10.70;1.00;;;;;;5093943;28;20163;-79
2023/10/31 03:45:02;;;;;;;1.60;1.10;;;10.80;1.00;;;;;;5088329;28;20176;-76
2023/10/31 03:47:28;;;;;;;13.33;1.13;;;10.70;1.00;;;;;;5098985;28;20199;-79
2023/10/31 03:49:53;;;;;;;1.20;1.10;;;10.70;1.00;;;;;;5095897;28;20176;-77
2023/10/31 03:52:19;;;;;;;1.67;1.00;;;10.70;1.00;;;;;;5102503;28;20181;-79
2023/10/31 03:54:45;;;;;;;2.40;1.47;;;10.80;1.00;;;;;;5098158;28;20242;-79
2023/10/31 03:57:11;;;;;;;13.80;1.50;;;10.80;1.00;;;;;;5097271;28;20975;-76
2023/10/31 03:59:39;;;;;;;7.50;1.30;;;10.80;1.00;;;;;;5097637;28;20255;-76
2023/10/31 04:02:04;;;;;;;1.93;1.20;;;10.90;1.00;;;;;;5098585;28;20228;-76
2023/10/31 04:04:30;;;;;;;1.40;1.10;;;10.90;1.00;;;;;;5101347;28;20437;-75
2023/10/31 04:06:55;;;;;;;2.53;1.23;;;11.00;1.00;;;;;;5098413;28;20195;-80
2023/10/31 04:09:21;;;;;;;1.57;1.30;;;11.00;1.00;;;;;;5098890;28;20185;-77
2023/10/31 04:11:46;;;;;;;1.70;1.40;;;11.10;1.00;;;;;;5101272;28;20248;-75
2023/10/31 04:14:12;;;;;;;1.30;1.20;;;11.10;1.00;;;;;;5096004;28;20657;-78
2023/10/31 04:16:39;;;;;;;2.40;1.60;;;11.20;1.00;;;;;;5093302;28;20211;-76
2023/10/31 04:19:05;;;;;;;2.30;1.70;;;11.20;1.00;;;;;;5102428;28;20611;-76
2023/10/31 04:21:31;;;;;;;1.97;1.40;;;11.20;1.00;;;;;;5102368;28;20464;-80
2023/10/31 04:23:56;;;;;;;2.80;1.30;;;11.30;1.00;;;;;;5091750;28;20183;-76
2023/10/31 04:26:22;;;;;;;2.10;1.43;;;11.30;1.00;;;;;;5094060;28;20176;-73
2023/10/31 04:28:47;;;;;;;1.60;1.20;;;11.30;1.00;;;;;;5090390;28;20194;-77
2023/10/31 04:31:12;;;;;;;1.60;1.20;;;11.30;1.00;;;;;;5094840;28;20183;-78
2023/10/31 04:33:38;;;;;;;1.43;1.10;;;11.40;1.00;;;;;;5092681;28;20187;-74
2023/10/31 04:36:04;;;;;;;1.63;1.30;;;11.40;1.00;;;;;;5090273;28;20199;-75
2023/10/31 04:38:29;;;;;;;4.17;1.47;;;11.40;1.00;;;;;;5097762;28;20467;-72
2023/10/31 04:40:55;;;;;;;3.00;1.30;;;11.40;1.00;;;;;;5095760;28;20475;-74
2023/10/31 04:43:20;;;;;;;1.60;1.10;;;11.40;1.00;;;;;;5090745;28;20176;-76
2023/10/31 04:45:46;;;;;;;1.57;1.10;;;11.40;1.00;;;;;;5090587;28;20600;-75
2023/10/31 04:48:11;;;;;;;1.40;1.10;;;11.40;1.00;;;;;;5093804;28;20202;-77
2023/10/31 04:50:37;;;;;;;3.30;1.30;;;11.40;1.00;;;;;;5095784;28;20183;-72
2023/10/31 04:53:02;;;;;;;2.27;1.20;;;11.40;1.00;;;;;;5090765;28;20184;-74
2023/10/31 04:55:28;;;;;;;2.23;1.13;;;11.40;1.00;;;;;;5090623;28;20175;-77
2023/10/31 04:57:53;;;;;;;1.10;1.00;;;11.40;1.00;;;;;;5090480;28;20736;-74
2023/10/31 05:00:19;;;;;;;1.80;1.03;;;11.50;1.00;;;;;;5094042;28;20626;-75
2023/10/31 05:02:44;;;;;;;2.47;1.10;;;11.50;1.00;;;;;;5092580;28;20176;-77
2023/10/31 05:05:10;;;;;;;9.00;1.50;;;11.50;1.00;;;;;;5090263;28;20177;-74
2023/10/31 05:07:35;;;;;;;1.30;1.03;;;11.50;1.00;;;;;;5095090;28;20574;-73
2023/10/31 05:10:01;;;;;;;1.90;1.20;;;11.50;1.00;;;;;;5090269;28;20178;-74
2023/10/31 05:12:26;;;;;;;5.17;1.30;;;11.50;1.00;;;;;;5093920;28;20184;-77
2023/10/31 05:14:52;;;;;;;5.43;1.20;;;11.50;1.00;;;;;;5089195;28;20225;-74
2023/10/31 05:17:17;;;;;;;2.30;1.10;;;11.60;1.00;;;;;;5090619;28;20586;-74
2023/10/31 05:19:43;;;;;;;3.93;1.10;;;11.60;1.00;;;;;;5094312;28;20183;-75
2023/10/31 05:22:09;;;;;;;1.57;1.20;;;11.60;1.00;;;;;;5094982;28;20175;-75
2023/10/31 05:24:35;;;;;;;4.20;1.20;;;11.60;1.00;;;;;;5089394;28;20213;-76
2023/10/31 05:27:01;;;;;;;1.70;1.00;;;11.50;1.00;;;;;;5091139;28;20460;-79
2023/10/31 05:29:26;;;;;;;3.03;1.23;;;11.60;1.00;;;;;;5093440;28;20548;-74
2023/10/31 05:31:52;;;;;;;1.43;1.10;;;11.60;1.00;;;;;;5089062;28;20218;-75
2023/10/31 05:34:17;;;;;;;3.67;1.13;;;11.70;1.00;;;;;;5093919;28;20179;-76
2023/10/31 05:36:43;;;;;;;2.80;1.20;;;11.70;1.00;;;;;;5095949;28;20280;-75
2023/10/31 05:39:09;;;;;;;3.43;1.10;;;11.70;1.00;;;;;;5092465;28;20929;-75
2023/10/31 05:41:35;;;;;;;4.40;1.47;;;11.60;1.00;;;;;;5093319;28;20636;-74
2023/10/31 05:44:01;;;;;;;2.60;1.27;;;11.70;1.00;;;;;;5093578;28;20425;-75
2023/10/31 05:46:26;;;;;;;2.27;1.50;;;11.60;1.00;;;;;;5106037;28;20218;-77
2023/10/31 05:48:52;;;;;;;4.03;1.30;;;11.60;1.00;;;;;;5092124;28;20180;-76
2023/10/31 05:51:19;;;;;;;3.90;1.60;;;11.60;1.00;;;;;;5107136;28;20179;-78
2023/10/31 05:53:46;;;;;;;3.10;1.63;;;11.50;1.00;;;;;;5095710;28;20180;-78
2023/10/31 05:56:13;;;;;;;5.30;1.40;;;11.50;1.00;;;;;;5097816;28;21073;-76
2023/10/31 05:58:39;;;;;;;1.90;1.50;;;11.40;1.00;;;;;;5098550;27;20505;-79
2023/10/31 06:01:05;;;;;;;5.67;2.00;;;11.40;1.00;;;;;;5096099;28;20430;-80
2023/10/31 06:03:31;;;;;;;4.50;1.53;;;11.40;1.00;;;;;;5100547;28;20504;-76
2023/10/31 06:05:56;;;;;;;3.00;1.60;;;11.50;1.00;;;;;;5100408;28;20210;-76
2023/10/31 06:08:24;;;;;;;5.33;1.40;;;11.50;1.00;;;;;;5094007;28;20477;-77
2023/10/31 06:10:50;;;;;;;2.30;1.23;;;11.50;1.00;;;;;;5096277;28;20584;-79
2023/10/31 06:13:16;;;;;;;4.67;1.57;;;11.60;1.00;;;;;;5095981;28;20916;-75
2023/10/31 06:15:42;;;;;;;2.70;1.10;;;11.60;1.00;;;;;;5098791;28;20429;-77
2023/10/31 06:18:07;;;;;;;3.17;1.07;;;11.60;1.00;;;;;;5096627;28;20195;-78
2023/10/31 06:20:34;;;;;;;1.60;1.23;;;11.60;1.00;;;;;;5094905;28;20243;-75
2023/10/31 06:23:01;;;;;;;1.87;1.23;;;11.60;1.00;;;;;;5095712;28;20186;-79
2023/10/31 06:25:26;;;;;;;3.73;1.50;;;11.60;1.00;;;;;;5090416;28;20511;-77
2023/10/31 06:27:52;;;;;;;1.90;1.40;;;11.60;1.00;;;;;;5092860;28;20543;-76
2023/10/31 06:30:17;;;;;;;4.50;1.60;;;11.60;1.00;;;;;;5096656;28;20453;-73
2023/10/31 06:32:43;;;;;;;2.50;1.70;;;12.20;1.00;;;;;;5103020;28;20172;-77
2023/10/31 06:35:08;;;;;;;1.60;1.30;;;12.30;1.00;;;;;;5108073;28;20178;-77
2023/10/31 06:37:36;;;;;;;3.00;1.60;;;12.30;1.00;;;;;;5105718;28;20214;-71
2023/10/31 06:40:01;;;;;;;1.63;1.30;;;12.20;1.00;;;;;;5102349;28;20258;-76
2023/10/31 06:42:27;;;;;;;1.77;1.37;;;12.20;1.00;;;;;;5111024;28;20427;-74
2023/10/31 06:44:52;;;;;;;4.40;1.47;;;12.30;1.00;;;;;;5105510;28;20222;-72
2023/10/31 06:47:19;;;;;;;1.50;1.10;;;12.30;1.00;;;;;;5109642;28;20198;-73
2023/10/31 06:49:44;;;;;;;1.20;1.00;;;13.30;1.00;;;;;;5098647;28;20485;-71
2023/10/31 06:52:09;;;;;;;3.93;1.17;;;12.40;1.00;;;;;;5080574;28;20561;-70
2023/10/31 06:54:35;;;;;;;2.77;1.17;;;12.50;1.00;;;;;;5091651;28;20191;-71
2023/10/31 06:57:01;;;;;;;3.33;1.53;;;12.60;1.00;;;;;;5091413;28;20214;-73
2023/10/31 06:59:29;;;;;;;2.70;1.13;;;12.60;1.00;;;;;;5099633;28;20653;-80
2023/10/31 07:01:54;;;;;;;3.00;1.10;;;12.40;1.00;;;;;;5091353;28;20521;-75
2023/10/31 07:04:20;;;;;;;2.37;1.23;;;12.30;1.00;;;;;;5103247;28;20928;-77
2023/10/31 07:06:45;;;;;;;1.93;1.00;;;12.20;1.00;;;;;;5105160;28;20210;-75
2023/10/31 07:09:11;;;;;;;6.80;1.20;;;12.10;1.00;;;;;;5095322;28;20179;-75
2023/10/31 07:11:36;;;;;;;5.40;1.13;;;12.00;1.00;;;;;;5095334;28;20175;-74
2023/10/31 07:14:02;;;;;;;2.00;1.10;;;12.00;1.00;;;;;;5095572;28;20553;-75
2023/10/31 07:16:29;;;;;;;1.77;1.10;;;11.90;1.00;;;;;;5097918;28;20278;-74
2023/10/31 07:18:54;;;;;;;1.80;1.20;;;11.90;1.00;;;;;;5095236;28;20263;-78
2023/10/31 07:21:20;;;;;;;1.60;1.00;;;11.90;1.00;;;;;;5096075;28;21012;-73
2023/10/31 07:23:45;;;;;;;2.27;1.00;;;12.00;1.00;;;;;;5093021;28;20531;-72
2023/10/31 07:26:11;;;;;;;3.23;1.27;;;12.00;1.00;;;;;;5090878;28;20175;-75
2023/10/31 07:28:36;;;;;;;2.53;1.10;;;12.10;1.00;;;;;;5095234;28;20219;-77
2023/10/31 07:31:02;;;;;;;2.00;1.20;;;12.10;1.00;;;;;;5090729;28;20392;-77
2023/10/31 07:33:28;;;;;;;1.33;1.00;;;12.10;1.00;;;;;;5094786;28;20206;-77
2023/10/31 07:35:53;;;;;;;1.50;1.20;;;12.10;1.00;;;;;;5097339;28;20183;-78
2023/10/31 07:38:18;;;;;;;2.70;0.90;;;12.10;1.00;;;;;;5100683;28;20224;-77
2023/10/31 07:40:44;;;;;;;3.20;1.30;;;13.10;1.00;;;;;;5107115;28;20187;-75
2023/10/31 07:43:09;;;;;;;1.87;1.07;;;12.20;1.00;;;;;;5088189;28;20218;-80
2023/10/31 07:45:35;;;;;;;2.50;1.17;;;12.20;1.00;;;;;;5095804;28;20195;-75
2023/10/31 07:48:01;;;;;;;3.37;1.13;;;12.30;1.00;;;;;;5097893;28;20665;-75
2023/10/31 07:50:27;;;;;;;1.57;1.17;;;12.30;1.00;;;;;;5097158;28;20642;-76
2023/10/31 07:52:53;;;;;;;1.20;1.00;;;12.30;1.00;;;;;;5101635;28;20429;-79
2023/10/31 07:55:19;;;;;;;1.30;0.90;;;12.30;1.00;;;;;;5091502;28;20176;-77
2023/10/31 07:57:44;;;;;;;3.90;1.40;;;12.30;1.00;;;;;;5096366;28;20205;-76
2023/10/31 08:00:11;;;;;;;3.67;1.20;;;12.40;1.00;;;;;;5099362;28;20421;-77
2023/10/31 08:02:37;;;;;;;8.30;1.40;;;12.40;1.00;;;;;;5096839;28;20170;-75
2023/10/31 08:05:03;;;;;;;1.97;1.13;;;12.30;1.00;;;;;;5089671;28;20486;-78
2023/10/31 08:07:30;;;;;;;1.50;1.20;;;12.40;1.00;;;;;;5086726;28;20202;-78
2023/10/31 08:09:56;;;;;;;2.60;0.90;;;12.40;1.00;;;;;;5097038;28;20183;-81
2023/10/31 08:12:21;;;;;;;2.20;1.13;;;12.40;1.00;;;;;;5092722;28;20440;-77
2023/10/31 08:14:48;;;;;;;1.50;1.07;;;12.50;1.00;;;;;;5095035;28;20767;-76
2023/10/31 08:17:13;;;;;;;2.57;1.20;;;12.60;1.00;;;;;;5101660;28;20210;-76
2023/10/31 08:19:39;;;;;;;6.87;1.20;;;12.70;1.00;;;;;;5097359;28;20439;-77
2023/10/31 08:22:04;;;;;;;4.70;1.30;;;12.90;1.00;;;;;;5102018;28;20718;-77
2023/10/31 08:24:30;;;;;;;2.50;1.10;;;13.00;1.00;;;;;;5095356;28;20190;-77
2023/10/31 08:26:55;;;;;;;2.47;1.20;;;13.00;1.00;;;;;;5088299;28;20280;-78
2023/10/31 08:29:21;;;;;;;5.03;1.30;;;13.00;1.00;;;;;;5095435;28;20183;-79
2023/10/31 08:31:46;;;;;;;6.23;1.33;;;12.90;1.00;;;;;;5099641;28;20192;-76
2023/10/31 08:34:12;;;;;;;4.43;1.40;;;12.90;1.00;;;;;;5096041;28;20185;-76
2023/10/31 08:36:37;;;;;;;4.87;1.30;;;13.00;1.00;;;;;;5098519;28;20642;-76
2023/10/31 08:39:03;;;;;;;3.07;1.40;;;13.10;1.00;;;;;;5103306;28;20608;-77
2023/10/31 08:41:29;;;;;;;2.10;1.20;;;13.10;1.00;;;;;;5094002;28;20565;-79
2023/10/31 08:43:54;;;;;;;3.57;1.20;;;13.10;1.00;;;;;;5091887;28;20550;-78
2023/10/31 08:46:20;;;;;;;3.87;1.70;;;13.30;1.00;;;;;;5099068;28;20179;-76
2023/10/31 08:48:45;;;;;;;2.37;1.30;;;13.30;1.00;;;;;;5094010;28;20187;-76
2023/10/31 08:51:11;;;;;;;2.17;1.40;;;13.40;1.00;;;;;;5090968;28;20194;-76
2023/10/31 08:53:36;;;;;;;3.40;1.70;;;13.40;1.00;;;;;;5100574;28;20190;-77
2023/10/31 08:56:02;;;;;;;2.23;1.20;;;13.60;1.00;;;;;;5099896;28;20267;-76
2023/10/31 08:58:29;;;;;;;7.97;1.60;;;13.70;1.00;;;;;;5099579;28;20276;-77
2023/10/31 09:00:54;;;;;;;4.03;1.30;;;13.80;1.00;;;;;;5092012;28;20187;-75
2023/10/31 09:03:20;;;;;;;4.33;1.40;;;15.60;1.00;;;;;;5095953;28;20420;-77
2023/10/31 09:05:45;;;;;;;3.67;1.73;;;14.40;1.00;;;;;;5108978;28;20183;-77
2023/10/31 09:08:11;;;;;;;2.30;1.50;;;14.90;1.00;;;;;;5094306;28;20261;-75
2023/10/31 09:10:38;;;;;;;3.70;1.40;;;15.10;1.00;;;;;;5106198;28;20171;-74
2023/10/31 09:13:03;;;;;;;3.37;1.37;;;15.10;1.00;;;;;;5103330;28;20171;-80
2023/10/31 09:15:29;;;;;;;1.73;1.40;;;15.50;1.00;;;;;;5096774;28;20926;-77
2023/10/31 09:17:54;;;;;;;2.63;1.40;;;16.50;1.00;;;;;;5099545;28;20214;-77
2023/10/31 09:20:20;;;;;;;2.50;1.67;;;17.50;1.00;;;;;;5098084;28;20171;-79
2023/10/31 09:22:45;;;;;;;4.93;1.57;;;18.50;1.00;;;;;;5104107;28;20187;-76
2023/10/31 09:25:11;;;;;;;8.93;1.50;;;18.60;1.00;;;;;;5100651;28;20175;-76
2023/10/31 09:27:40;;;;;;;5.07;1.70;;;17.90;1.00;;;;;;5102301;28;20289;-76
2023/10/31 09:30:06;;;;;;;3.73;1.50;;;17.40;1.00;;;;;;5098311;28;20252;-75
2023/10/31 09:32:32;;;;;;;3.40;1.70;;;17.80;1.00;;;;;;5099248;28;20466;-80
2023/10/31 09:34:58;;;;;;;3.63;1.63;;;19.60;1.00;;;;;;5093132;28;20475;-76
2023/10/31 09:37:23;;;;;;;3.43;1.80;;;19.60;1.00;;;;;;5098038;28;20232;-75
2023/10/31 09:39:48;;;;;;;3.13;1.40;;;20.30;1.00;;;;;;5102323;28;20598;-78
2023/10/31 09:42:14;;;;;;;7.20;1.90;;;20.50;1.00;;;;;;5097939;28;20175;-76
2023/10/31 09:44:40;;;;;;;8.93;1.70;;;20.00;1.00;;;;;;5097733;28;20227;-78
2023/10/31 09:47:06;;;;;;;6.17;1.80;;;20.80;1.00;;;;;;5090101;28;20338;-78
2023/10/31 09:49:32;;;;;;;2.93;1.40;;;21.60;1.00;;;;;;5103435;28;20635;-78
2023/10/31 09:51:59;;;;;;;3.27;1.43;;;22.10;1.00;;;;;;5095462;28;20468;-78
2023/10/31 09:54:26;;;;;;;6.67;1.70;;;21.30;1.00;;;;;;5095004;28;20190;-77
2023/10/31 09:56:51;;;;;;;4.33;1.80;;;21.40;1.00;;;;;;5089920;28;20465;-77
2023/10/31 09:59:17;;;;;;;4.37;1.47;;;21.20;1.00;;;;;;5096313;28;20854;-76
2023/10/31 10:01:43;;;;;;;6.23;1.70;;;21.00;1.00;;;;;;5107388;28;20553;-78
2023/10/31 10:04:09;;;;;;;4.23;1.90;;;21.10;1.00;;;;;;5099563;28;20174;-81
2023/10/31 10:06:34;;;;;;;4.90;1.90;;;20.90;1.00;;;;;;5090429;28;20677;-79
2023/10/31 10:09:02;;;;;;;5.23;1.70;;;21.00;1.00;;;;;;5089834;28;20465;-77
2023/10/31 10:11:28;;;;;;;4.70;1.60;;;21.70;1.00;;;;;;5096367;28;20540;-81
2023/10/31 10:13:53;;;;;;;10.43;2.03;;;21.30;1.00;;;;;;5098933;28;20429;-79
2023/10/31 10:16:33;;;;;;;3.90;1.70;;;19.90;1.00;;;;;;5099406;28;20209;-79
2023/10/31 10:19:19;;;;;;;6.23;2.00;;;19.90;1.00;;;;;;5096841;28;20660;-77
2023/10/31 10:21:48;;;;;;;5.30;1.73;;;20.60;1.00;;;;;;5095068;28;20444;-77
2023/10/31 10:24:14;;;;;;;4.93;1.63;;;21.00;1.00;;;;;;5099227;28;20431;-76
2023/10/31 10:26:39;;;;;;;4.50;1.60;;;21.20;1.00;;;;;;5091785;28;20448;-78
2023/10/31 10:29:05;;;;;;;3.43;1.70;;;20.50;1.00;;;;;;5093248;28;20206;-77
2023/10/31 10:31:30;;;;;;;3.20;1.40;;;19.10;1.00;;;;;;5094393;28;20188;-74
2023/10/31 10:33:56;;;;;;;3.77;1.40;;;18.30;1.00;;;;;;5092727;28;20185;-74
2023/10/31 10:36:25;;;;;;;8.53;1.50;;;17.90;1.00;;;;;;5104522;28;20283;-77
2023/10/31 10:38:56;;;;;;;6.83;1.70;;;17.80;1.00;;;;;;5096947;28;20176;-75
2023/10/31 10:41:25;;;;;;;3.97;1.57;;;18.10;1.00;;;;;;5094614;28;20939;-75
2023/10/31 10:43:56;;;;;;;8.40;1.53;;;18.00;1.00;;;;;;5090018;28;20762;-77
2023/10/31 10:46:26;;;;;;;5.10;1.60;;;17.30;1.00;;;;;;5097897;28;20483;-76
2023/10/31 10:48:57;;;;;;;2.97;1.57;;;17.30;1.00;;;;;;5094050;28;20424;-80
2023/10/31 10:51:29;;;;;;;5.37;1.60;;;17.20;1.00;;;;;;5098833;28;20497;-76
2023/10/31 10:54:19;;;;;;;4.30;1.50;;;17.20;1.00;;;;;;5100094;28;20437;-74
2023/10/31 10:56:57;;;;;;;2.57;1.67;;;17.70;1.00;;;;;;5097390;28;20461;-75
2023/10/31 10:59:42;;;;;;;5.63;1.80;;;17.80;1.00;;;;;;5100532;28;20416;-76
2023/10/31 11:02:10;;;;;;;3.43;1.53;;;17.90;1.00;;;;;;5088931;28;20430;-75
2023/10/31 11:04:36;;;;;;;3.93;1.60;;;17.90;1.00;;;;;;5093143;28;20429;-73
2023/10/31 11:07:02;;;;;;;6.50;1.97;;;17.80;1.00;;;;;;5098368;28;20459;-75
2023/10/31 11:09:33;;;;;;;4.73;1.70;;;17.80;1.00;;;;;;5100017;28;20799;-72
2023/10/31 11:11:59;;;;;;;5.97;2.13;;;17.30;1.00;;;;;;5101247;28;20316;-76
2023/10/31 11:14:26;;;;;;;8.53;1.80;;;17.10;1.00;;;;;;5091054;28;20532;-78
2023/10/31 11:16:54;;;;;;;3.03;1.37;;;16.80;1.00;;;;;;5093701;28;20252;-72
2023/10/31 11:19:22;;;;;;;5.83;1.60;;;16.70;1.00;;;;;;5095761;28;20430;-73
2023/10/31 11:22:01;;;;;;;2.97;1.50;;;16.50;1.00;;;;;;5102145;28;20460;-75
2023/10/31 11:24:30;;;;;;;5.93;1.43;;;16.50;1.00;;;;;;5095005;28;20460;-76
2023/10/31 11:27:00;;;;;;;3.07;1.50;;;16.70;1.00;;;;;;5094020;28;20436;-75
2023/10/31 11:29:25;;;;;;;9.13;1.80;;;16.70;1.00;;;;;;5098285;28;20579;-75
2023/10/31 11:31:51;;;;;;;2.80;1.27;;;16.70;1.00;;;;;;5100738;28;20460;-73
2023/10/31 11:34:18;;;;;;;2.57;1.40;;;16.70;1.00;;;;;;5093767;28;20222;-79
2023/10/31 11:36:46;;;;;;;3.20;1.50;;;16.40;1.00;;;;;;5099561;28;20209;-75
2023/10/31 11:39:18;;;;;;;6.03;1.83;;;16.30;1.00;;;;;;5104547;28;20432;-77
2023/10/31 11:41:50;;;;;;;5.00;1.50;;;16.30;1.00;;;;;;5089262;28;20841;-75
2023/10/31 11:44:17;;;;;;;12.63;1.87;;;16.40;1.00;;;;;;5103974;28;20815;-77
2023/10/31 11:46:43;;;;;;;4.53;1.50;;;16.80;1.00;;;;;;5092983;28;20528;-77
2023/10/31 11:49:08;;;;;;;4.83;1.60;;;16.80;1.00;;;;;;5101868;28;20799;-76
2023/10/31 11:51:35;;;;;;;4.27;1.43;;;17.00;1.00;;;;;;5095625;28;20434;-76
2023/10/31 11:54:02;;;;;;;6.00;1.87;;;17.40;1.00;;;;;;5100044;28;20700;-78
2023/10/31 11:56:28;;;;;;;7.17;1.73;;;17.60;1.00;;;;;;5091679;28;20504;-75
2023/10/31 11:59:09;;;;;;;5.00;1.70;;;17.60;1.00;;;;;;5097552;28;20461;-72
2023/10/31 12:01:45;;;;;;;3.90;1.77;;;18.00;1.00;;;;;;5090497;28;20175;-79
2023/10/31 12:04:22;;;;;;;5.10;2.03;;;18.40;1.00;;;;;;5092856;28;20513;-75
2023/10/31 12:06:57;;;;;;;3.87;1.47;;;20.40;1.00;;;;;;5090751;28;20453;-75
2023/10/31 12:09:22;;;;;;;2.77;1.50;;;21.00;1.00;;;;;;5096516;28;20425;-75
2023/10/31 12:11:48;;;;;;;2.70;1.30;;;22.10;1.00;;;;;;5094146;28;20436;-75
2023/10/31 12:14:18;;;;;;;3.40;1.40;;;22.70;1.00;;;;;;5090819;28;20583;-78
2023/10/31 12:16:44;;;;;;;6.27;1.50;;;22.10;1.00;;;;;;5092107;28;20294;-75
2023/10/31 12:19:09;;;;;;;4.00;1.47;;;21.80;1.00;;;;;;5095646;28;20859;-75
2023/10/31 12:21:39;;;;;;;5.60;1.50;;;20.60;1.00;;;;;;5091984;28;20198;-74
2023/10/31 12:24:05;;;;;;;3.50;1.53;;;20.30;1.00;;;;;;5084765;28;20180;-75
2023/10/31 12:26:34;;;;;;;3.60;1.73;;;22.80;1.00;;;;;;5088793;28;20553;-75
2023/10/31 12:29:10;;;;;;;5.37;1.80;;;23.20;1.00;;;;;;5096064;28;20876;-74
2023/10/31 12:31:40;;;;;;;4.30;1.60;;;25.10;1.00;;;;;;5094472;28;20433;-75
2023/10/31 12:34:06;;;;;;;4.20;1.40;;;25.20;1.00;;;;;;5097097;28;20471;-75
2023/10/31 12:36:32;;;;;;;3.27;1.27;;;24.20;1.00;;;;;;5092640;28;20994;-75
2023/10/31 12:38:57;;;;;;;4.00;1.40;;;24.10;1.00;;;;;;5099778;28;20537;-76
2023/10/31 12:41:23;;;;;;;4.13;1.23;;;23.60;1.00;;;;;;5092893;28;20437;-77
2023/10/31 12:43:49;;;;;;;2.97;1.40;;;23.50;1.00;;;;;;5102873;28;20617;-76
2023/10/31 12:46:31;;;;;;;3.73;1.67;;;23.80;1.00;;;;;;5097147;28;20179;-75
2023/10/31 12:48:57;;;;;;;3.50;1.33;;;23.90;1.00;;;;;;5102318;28;20734;-75
2023/10/31 12:51:23;;;;;;;5.43;1.40;;;24.10;1.00;;;;;;5093512;28;20417;-75
2023/10/31 12:53:52;;;;;;;2.80;1.30;;;24.10;1.00;;;;;;5096328;28;20461;-75